Startpagina
METAR-TAF:

METAR-TAF

Vliegvelden :

Nörvenich, Duitsland

breedte: 50-50N, lengte: 006-40E, hoogte: 118 m

Actueel weer

Dit bericht is 49 minuten geleden gemaakt, om 12:20 UTC
Wind 11 kt uit het westen
Temperatuur 18°C
Vochtigheid 56%
Druk 1016 hPa
Zicht 10 km of meer
Verspreide wolken op 3500 ft
Verspreide wolken op 28000 ft

METAR: ETNN 231220Z 28011KT 9999 SCT035 SCT280 18/09 Q1016 BLU+BLU+

Tijdstip: 15:09 (13:09 UTC)

Verwachting

Dit bericht is 2 uur en het 54 minuten geleden gemaakt, om 10:15 UTC
Verwachting geldig van 23 om 11 UTC tot 23 om 20 UTC
Wind 12 kt uit het westen met uitschieters tot 22 kt
Zicht 10 km of meer
Verspreide wolken op 3000 ft

TAF: ETNN 231015Z 2311/2320 28012G22KT 9999 NSW SCT030 BY ETGL

Waarnemingen en weersverwachtingen van meer dan 4000 vliegvelden (METAR en TAF).

De beschikbare stations zijn de gele en rode punten op de kaart.

Ga met uw muis naar het station om de naam te zien.

Klik dan om waarnemingen en weersverwachtingen te zien.

kaart wijzigen: klik op de groene knoppen met een zwart kruis om in te zoomen, op de groene knop met een streepje om uit te zoomen of op de groene pijlen voor aangrenzende kaarten.


METAR-TAF: